createdAt,value
2023-04-27T00:00:03.225Z,436.00
2023-04-27T00:01:03.201Z,440.00
2023-04-27T00:02:03.269Z,440.00
2023-04-27T00:03:03.530Z,441.00
2023-04-27T00:04:03.334Z,445.00
2023-04-27T00:05:03.602Z,447.00
2023-04-27T00:06:03.253Z,447.00
2023-04-27T00:07:03.184Z,447.00
2023-04-27T00:08:03.204Z,445.00
2023-04-27T00:09:03.181Z,444.00
2023-04-27T00:10:03.202Z,444.00
2023-04-27T00:11:03.212Z,442.00
2023-04-27T00:12:03.224Z,442.00
2023-04-27T00:13:03.248Z,441.00
2023-04-27T00:14:03.234Z,439.00
2023-04-27T00:15:03.246Z,439.00
2023-04-27T00:16:03.308Z,438.00
2023-04-27T00:17:03.333Z,440.00
2023-04-27T00:18:03.365Z,441.00
2023-04-27T00:19:03.327Z,444.00
2023-04-27T00:20:03.329Z,444.00
2023-04-27T00:21:03.324Z,443.00
2023-04-27T00:22:03.359Z,442.00
2023-04-27T00:23:03.392Z,441.00
2023-04-27T00:24:03.414Z,439.00
2023-04-27T00:25:03.394Z,443.00
2023-04-27T00:26:03.429Z,442.00
2023-04-27T00:27:03.428Z,440.00
2023-04-27T00:28:03.455Z,440.00
2023-04-27T00:29:03.506Z,443.00
2023-04-27T00:30:03.465Z,444.00
2023-04-27T00:31:03.517Z,442.00
2023-04-27T00:32:03.577Z,441.00
2023-04-27T00:33:03.583Z,440.00
2023-04-27T00:34:03.496Z,441.00
2023-04-27T00:35:03.511Z,440.00
2023-04-27T00:36:03.516Z,441.00
2023-04-27T00:37:03.550Z,440.00
2023-04-27T00:38:03.570Z,443.00
2023-04-27T00:39:03.587Z,443.00
2023-04-27T00:40:03.547Z,441.00
2023-04-27T00:41:03.576Z,445.00
2023-04-27T00:42:03.561Z,446.00
2023-04-27T00:43:03.591Z,446.00
2023-04-27T00:44:03.603Z,445.00
2023-04-27T00:45:03.615Z,444.00
2023-04-27T00:46:03.659Z,441.00
2023-04-27T00:47:03.628Z,439.00
2023-04-27T00:48:03.689Z,440.00
2023-04-27T00:49:03.622Z,438.00
2023-04-27T00:50:03.631Z,438.00
2023-04-27T00:51:03.633Z,440.00
2023-04-27T00:52:03.695Z,442.00
2023-04-27T00:53:03.696Z,441.00
2023-04-27T00:54:03.663Z,442.00
2023-04-27T00:55:03.686Z,441.00
2023-04-27T00:56:03.712Z,440.00
2023-04-27T00:57:03.719Z,441.00
2023-04-27T00:58:03.741Z,443.00
2023-04-27T00:59:03.737Z,440.00
2023-04-27T01:00:03.838Z,439.00
2023-04-27T01:01:03.773Z,437.00
2023-04-27T01:02:03.756Z,437.00
2023-04-27T01:03:03.845Z,437.00
2023-04-27T01:04:03.838Z,436.00
2023-04-27T01:05:03.799Z,436.00
2023-04-27T01:06:03.786Z,436.00
2023-04-27T01:07:03.762Z,437.00
2023-04-27T01:08:03.800Z,439.00
2023-04-27T01:09:03.786Z,440.00
2023-04-27T01:10:03.783Z,440.00
2023-04-27T01:11:03.809Z,441.00
2023-04-27T01:12:03.799Z,442.00
2023-04-27T01:13:03.841Z,441.00
2023-04-27T01:14:03.850Z,441.00
2023-04-27T01:15:03.888Z,440.00
2023-04-27T01:16:03.869Z,441.00
2023-04-27T01:17:03.995Z,441.00
2023-04-27T01:18:03.953Z,440.00
2023-04-27T01:19:03.879Z,439.00
2023-04-27T01:20:03.881Z,436.00
2023-04-27T01:21:03.928Z,438.00
2023-04-27T01:22:03.915Z,437.00
2023-04-27T01:23:03.950Z,437.00
2023-04-27T01:24:03.987Z,439.00
2023-04-27T01:25:04.053Z,439.00
2023-04-27T01:26:03.961Z,439.00
2023-04-27T01:27:04.001Z,438.00
2023-04-27T01:28:03.991Z,440.00
2023-04-27T01:29:04.020Z,441.00
2023-04-27T01:30:04.037Z,438.00
2023-04-27T01:31:04.079Z,436.00
2023-04-27T01:32:04.042Z,434.00
2023-04-27T01:33:04.129Z,433.00
2023-04-27T01:34:04.074Z,433.00
2023-04-27T01:35:04.060Z,434.00
2023-04-27T01:36:04.045Z,434.00
2023-04-27T01:37:04.095Z,434.00
2023-04-27T01:38:04.112Z,436.00
2023-04-27T01:39:04.145Z,438.00
2023-04-27T01:40:04.137Z,440.00
2023-04-27T01:41:04.147Z,439.00
2023-04-27T01:42:04.186Z,438.00
2023-04-27T01:43:04.202Z,439.00
2023-04-27T01:44:04.222Z,438.00
2023-04-27T01:45:04.281Z,439.00
2023-04-27T01:46:04.335Z,437.00
2023-04-27T01:47:04.279Z,435.00
2023-04-27T01:48:04.373Z,433.00
2023-04-27T01:49:04.351Z,435.00
2023-04-27T01:50:04.360Z,435.00
2023-04-27T01:51:04.355Z,435.00
2023-04-27T01:52:04.350Z,434.00
2023-04-27T01:53:04.396Z,435.00
2023-04-27T01:54:04.371Z,437.00
2023-04-27T01:55:04.380Z,439.00
2023-04-27T01:56:04.394Z,438.00
2023-04-27T01:57:04.423Z,438.00
2023-04-27T01:58:04.464Z,437.00
2023-04-27T01:59:04.438Z,437.00
2023-04-27T02:00:04.479Z,440.00
2023-04-27T02:01:04.475Z,440.00
2023-04-27T02:02:04.580Z,440.00
2023-04-27T02:03:04.542Z,439.00
2023-04-27T02:04:04.707Z,441.00
2023-04-27T02:05:04.496Z,439.00
2023-04-27T02:06:04.521Z,438.00
2023-04-27T02:07:04.523Z,438.00
2023-04-27T02:08:04.507Z,438.00
2023-04-27T02:09:04.545Z,440.00
2023-04-27T02:10:04.563Z,440.00
2023-04-27T02:11:04.579Z,437.00
2023-04-27T02:12:04.606Z,439.00
2023-04-27T02:13:04.592Z,440.00
2023-04-27T02:14:04.627Z,441.00
2023-04-27T02:15:04.617Z,439.00
2023-04-27T02:16:04.717Z,440.00
2023-04-27T02:17:04.660Z,441.00
2023-04-27T02:18:04.777Z,440.00
2023-04-27T02:19:04.727Z,441.00
2023-04-27T02:20:04.770Z,437.00
2023-04-27T02:21:04.761Z,436.00
2023-04-27T02:22:04.816Z,437.00
2023-04-27T02:23:04.786Z,437.00
2023-04-27T02:24:04.850Z,435.00
2023-04-27T02:25:04.860Z,436.00
2023-04-27T02:26:04.872Z,438.00
2023-04-27T02:27:04.953Z,440.00
2023-04-27T02:28:04.945Z,443.00
2023-04-27T02:29:04.965Z,442.00
2023-04-27T02:30:05.036Z,439.00
2023-04-27T02:31:05.079Z,439.00
2023-04-27T02:32:05.128Z,439.00
2023-04-27T02:33:05.205Z,436.00
2023-04-27T02:34:05.181Z,438.00
2023-04-27T02:35:05.223Z,439.00
2023-04-27T02:36:05.285Z,441.00
2023-04-27T02:37:05.363Z,440.00
2023-04-27T02:38:05.409Z,440.00
2023-04-27T02:39:05.476Z,441.00
2023-04-27T02:40:05.506Z,438.00
2023-04-27T02:41:05.561Z,437.00
2023-04-27T02:42:05.647Z,436.00
2023-04-27T02:43:05.672Z,436.00
2023-04-27T02:44:05.750Z,436.00
2023-04-27T02:45:05.760Z,437.00
2023-04-27T02:46:05.861Z,436.00
2023-04-27T02:47:06.044Z,440.00
2023-04-27T02:48:06.007Z,441.00
2023-04-27T02:49:05.983Z,441.00
2023-04-27T02:50:06.031Z,442.00
2023-04-27T02:51:06.060Z,443.00
2023-04-27T02:52:06.180Z,444.00
2023-04-27T02:53:06.182Z,445.00
2023-04-27T02:54:06.253Z,445.00
2023-04-27T02:55:06.284Z,445.00
2023-04-27T02:56:06.291Z,444.00
2023-04-27T02:57:06.388Z,443.00
2023-04-27T02:58:06.399Z,442.00
2023-04-27T02:59:06.454Z,442.00
2023-04-27T03:00:06.502Z,440.00
2023-04-27T03:01:06.648Z,440.00
2023-04-27T03:02:06.581Z,439.00
2023-04-27T03:03:06.793Z,442.00
2023-04-27T03:04:06.783Z,441.00
2023-04-27T03:05:06.718Z,441.00
2023-04-27T03:06:06.778Z,441.00
2023-04-27T03:07:06.791Z,440.00
2023-04-27T03:08:06.868Z,440.00
2023-04-27T03:09:06.903Z,439.00
2023-04-27T03:10:06.982Z,438.00
2023-04-27T03:11:06.973Z,439.00
2023-04-27T03:12:07.038Z,439.00
2023-04-27T03:13:07.098Z,441.00
2023-04-27T03:14:07.129Z,440.00
2023-04-27T03:15:07.172Z,441.00
2023-04-27T03:16:07.244Z,440.00
2023-04-27T03:17:07.286Z,438.00
2023-04-27T03:18:07.359Z,437.00
2023-04-27T03:19:07.307Z,437.00
2023-04-27T03:20:07.368Z,439.00
2023-04-27T03:21:07.398Z,441.00
2023-04-27T03:22:07.423Z,443.00
2023-04-27T03:23:07.458Z,444.00
2023-04-27T03:24:07.507Z,443.00
2023-04-27T03:25:07.548Z,442.00
2023-04-27T03:26:07.593Z,441.00
2023-04-27T03:27:07.641Z,442.00
2023-04-27T03:28:07.679Z,443.00
2023-04-27T03:29:07.707Z,445.00
2023-04-27T03:30:07.754Z,443.00
2023-04-27T03:31:07.779Z,442.00
2023-04-27T03:32:07.886Z,437.00
2023-04-27T03:33:07.931Z,438.00
2023-04-27T03:34:07.890Z,437.00
2023-04-27T03:35:07.880Z,437.00
2023-04-27T03:36:07.912Z,437.00
2023-04-27T03:37:07.907Z,440.00
2023-04-27T03:38:07.904Z,445.00
2023-04-27T03:39:07.965Z,447.00
2023-04-27T03:40:07.964Z,449.00
2023-04-27T03:41:08.014Z,447.00
2023-04-27T03:42:08.045Z,445.00
2023-04-27T03:43:08.111Z,443.00
2023-04-27T03:44:08.138Z,442.00
2023-04-27T03:45:08.166Z,443.00
2023-04-27T03:46:08.232Z,444.00
2023-04-27T03:47:08.214Z,444.00
2023-04-27T03:48:08.277Z,441.00
2023-04-27T03:49:08.294Z,442.00
2023-04-27T03:50:08.342Z,444.00
2023-04-27T03:51:08.387Z,442.00
2023-04-27T03:52:08.419Z,441.00
2023-04-27T03:53:08.444Z,442.00
2023-04-27T03:54:08.478Z,443.00
2023-04-27T03:55:08.498Z,443.00
2023-04-27T03:56:08.564Z,443.00
2023-04-27T03:57:08.567Z,444.00
2023-04-27T03:58:08.628Z,445.00
2023-04-27T03:59:08.662Z,445.00
2023-04-27T04:00:08.656Z,447.00
2023-04-27T04:01:08.734Z,447.00
2023-04-27T04:02:08.795Z,447.00
2023-04-27T04:03:08.955Z,446.00
2023-04-27T04:04:08.883Z,444.00
2023-04-27T04:05:08.995Z,442.00
2023-04-27T04:06:08.883Z,441.00
2023-04-27T04:07:08.954Z,443.00
2023-04-27T04:08:08.984Z,441.00
2023-04-27T04:09:08.993Z,440.00
2023-04-27T04:10:09.145Z,438.00
2023-04-27T04:11:09.072Z,438.00
2023-04-27T04:12:09.075Z,441.00
2023-04-27T04:13:09.087Z,440.00
2023-04-27T04:14:09.135Z,443.00
2023-04-27T04:15:09.125Z,441.00
2023-04-27T04:16:09.224Z,444.00
2023-04-27T04:17:09.199Z,446.00
2023-04-27T04:18:09.251Z,446.00
2023-04-27T04:19:09.294Z,445.00
2023-04-27T04:20:09.298Z,447.00
2023-04-27T04:21:09.923Z,446.00
2023-04-27T04:22:09.369Z,448.00
2023-04-27T04:23:09.426Z,447.00
2023-04-27T04:24:09.447Z,447.00
2023-04-27T04:25:09.480Z,448.00
2023-04-27T04:26:09.500Z,447.00
2023-04-27T04:27:09.541Z,448.00
2023-04-27T04:28:09.558Z,449.00
2023-04-27T04:29:10.802Z,448.00
2023-04-27T04:30:09.598Z,448.00
2023-04-27T04:31:09.742Z,447.00
2023-04-27T04:32:09.668Z,446.00
2023-04-27T04:33:09.667Z,447.00
2023-04-27T04:34:09.697Z,447.00
2023-04-27T04:35:09.721Z,446.00
2023-04-27T04:36:09.730Z,444.00
2023-04-27T04:37:09.749Z,444.00
2023-04-27T04:38:09.771Z,445.00
2023-04-27T04:39:09.797Z,447.00
2023-04-27T04:40:09.846Z,446.00
2023-04-27T04:41:09.851Z,446.00
2023-04-27T04:42:09.855Z,444.00
2023-04-27T04:43:09.890Z,443.00
2023-04-27T04:44:09.892Z,446.00
2023-04-27T04:45:09.927Z,449.00
2023-04-27T04:46:10.001Z,448.00
2023-04-27T04:47:09.997Z,447.00
2023-04-27T04:48:10.006Z,448.00
2023-04-27T04:49:10.050Z,447.00
2023-04-27T04:50:10.085Z,446.00
2023-04-27T04:51:10.069Z,446.00
2023-04-27T04:52:10.086Z,445.00
2023-04-27T04:53:10.111Z,444.00
2023-04-27T04:54:10.126Z,443.00
2023-04-27T04:55:10.132Z,444.00
2023-04-27T04:56:10.166Z,441.00
2023-04-27T04:57:10.435Z,439.00
2023-04-27T04:58:10.168Z,439.00
2023-04-27T04:59:10.250Z,440.00
2023-04-27T05:00:10.228Z,441.00
2023-04-27T05:01:17.282Z,441.00
2023-04-27T05:02:10.275Z,442.00
2023-04-27T05:03:10.435Z,441.00
2023-04-27T05:04:10.357Z,442.00
2023-04-27T05:05:10.214Z,443.00
2023-04-27T05:06:10.208Z,444.00
2023-04-27T05:07:11.092Z,447.00
2023-04-27T05:08:10.204Z,448.00
2023-04-27T05:09:10.238Z,448.00
2023-04-27T05:10:10.290Z,447.00
2023-04-27T05:11:10.284Z,447.00
2023-04-27T05:12:10.344Z,449.00
2023-04-27T05:13:10.353Z,450.00
2023-04-27T05:14:10.345Z,450.00
2023-04-27T05:15:10.398Z,446.00
2023-04-27T05:16:10.479Z,448.00
2023-04-27T05:17:10.457Z,447.00
2023-04-27T05:18:10.439Z,445.00
2023-04-27T05:19:10.483Z,443.00
2023-04-27T05:20:10.501Z,442.00
2023-04-27T05:21:10.515Z,441.00
2023-04-27T05:22:10.535Z,441.00
2023-04-27T05:23:10.558Z,441.00
2023-04-27T05:24:10.563Z,442.00
2023-04-27T05:25:10.658Z,443.00
2023-04-27T05:26:10.636Z,444.00
2023-04-27T05:27:10.644Z,446.00
2023-04-27T05:28:10.654Z,446.00
2023-04-27T05:29:10.701Z,447.00
2023-04-27T05:30:10.706Z,447.00
2023-04-27T05:31:10.819Z,449.00
2023-04-27T05:32:10.792Z,448.00
2023-04-27T05:33:10.998Z,448.00
2023-04-27T05:34:10.829Z,449.00
2023-04-27T05:35:10.873Z,486.00
2023-04-27T05:36:10.904Z,495.00
2023-04-27T05:37:10.931Z,496.00
2023-04-27T05:38:10.967Z,496.00
2023-04-27T05:39:11.018Z,505.00
2023-04-27T05:40:11.037Z,518.00
2023-04-27T05:41:11.085Z,534.00
2023-04-27T05:42:11.135Z,545.00
2023-04-27T05:43:11.498Z,543.00
2023-04-27T05:44:11.203Z,547.00
2023-04-27T05:45:11.261Z,550.00
2023-04-27T05:46:18.315Z,548.00
2023-04-27T05:47:11.280Z,549.00
2023-04-27T05:48:11.279Z,549.00
2023-04-27T05:49:11.373Z,555.00
2023-04-27T05:50:11.289Z,619.00
2023-04-27T05:51:11.289Z,618.00
2023-04-27T05:52:11.246Z,630.00
2023-04-27T05:53:11.567Z,700.00
2023-04-27T05:54:12.011Z,700.00
2023-04-27T05:55:11.235Z,581.00
2023-04-27T05:56:11.209Z,596.00
2023-04-27T05:57:11.189Z,612.00
2023-04-27T05:58:11.181Z,614.00
2023-04-27T05:59:11.211Z,606.00
2023-04-27T06:00:11.238Z,587.00
2023-04-27T06:01:11.145Z,556.00
2023-04-27T06:02:11.171Z,520.00
2023-04-27T06:03:11.245Z,527.00
2023-04-27T06:04:11.308Z,529.00
2023-04-27T06:05:11.172Z,534.00
2023-04-27T06:06:11.135Z,531.00
2023-04-27T06:07:11.123Z,535.00
2023-04-27T06:08:11.142Z,537.00
2023-04-27T06:09:11.173Z,677.00
2023-04-27T06:10:11.101Z,723.00
2023-04-27T06:11:11.093Z,716.00
2023-04-27T06:12:11.123Z,718.00
2023-04-27T06:13:11.091Z,575.00
2023-04-27T06:14:11.151Z,662.00
2023-04-27T06:15:11.168Z,706.00
2023-04-27T06:16:11.353Z,744.00
2023-04-27T06:17:11.248Z,745.00
2023-04-27T06:18:11.351Z,749.00
2023-04-27T06:19:11.472Z,762.00
2023-04-27T06:20:11.339Z,775.00
2023-04-27T06:21:11.350Z,780.00
2023-04-27T06:22:11.357Z,586.00
2023-04-27T06:23:11.353Z,797.00
2023-04-27T06:24:11.325Z,849.00
2023-04-27T06:25:11.358Z,849.00
2023-04-27T06:26:11.505Z,865.00
2023-04-27T06:27:11.391Z,873.00
2023-04-27T06:28:11.359Z,883.00
2023-04-27T06:29:11.566Z,899.00
2023-04-27T06:30:11.413Z,910.00
2023-04-27T06:31:11.401Z,920.00
2023-04-27T06:32:11.464Z,868.00
2023-04-27T06:33:11.480Z,762.00
2023-04-27T06:34:11.546Z,737.00
2023-04-27T06:35:11.441Z,709.00
2023-04-27T06:36:11.562Z,665.00
2023-04-27T06:37:11.451Z,672.00
2023-04-27T06:38:11.502Z,669.00
2023-04-27T06:39:11.765Z,674.00
2023-04-27T06:40:11.609Z,685.00
2023-04-27T06:41:11.736Z,714.00
2023-04-27T06:42:11.711Z,675.00
2023-04-27T06:43:11.772Z,684.00
2023-04-27T06:44:11.819Z,721.00
2023-04-27T06:45:12.007Z,721.00
2023-04-27T06:46:11.931Z,691.00
2023-04-27T06:47:12.038Z,656.00
2023-04-27T06:48:12.062Z,647.00
2023-04-27T06:49:12.167Z,630.00
2023-04-27T06:50:12.095Z,633.00
2023-04-27T06:51:12.189Z,680.00
2023-04-27T06:52:12.091Z,655.00
2023-04-27T06:53:12.161Z,658.00
2023-04-27T06:54:12.147Z,660.00
2023-04-27T06:55:12.169Z,658.00
2023-04-27T06:56:12.252Z,655.00
2023-04-27T06:57:12.308Z,656.00
2023-04-27T06:58:12.334Z,649.00
2023-04-27T06:59:12.632Z,641.00
2023-04-27T07:00:12.455Z,638.00
2023-04-27T07:01:12.521Z,631.00
2023-04-27T07:02:12.577Z,627.00
2023-04-27T07:03:12.747Z,633.00
2023-04-27T07:04:12.811Z,634.00
2023-04-27T07:05:12.721Z,629.00
2023-04-27T07:06:12.766Z,629.00
2023-04-27T07:07:12.824Z,630.00
2023-04-27T07:08:12.877Z,599.00
2023-04-27T07:09:24.000Z,591.00
2023-04-27T07:10:13.933Z,597.00
2023-04-27T07:11:12.922Z,592.00
2023-04-27T07:12:12.931Z,595.00
2023-04-27T07:13:14.357Z,604.00
2023-04-27T07:14:13.066Z,619.00
2023-04-27T07:15:12.960Z,634.00
2023-04-27T07:16:12.981Z,646.00
2023-04-27T07:17:12.932Z,644.00
2023-04-27T07:18:12.879Z,633.00
2023-04-27T07:19:13.117Z,626.00
2023-04-27T07:20:13.013Z,616.00
2023-04-27T07:21:13.091Z,618.00
2023-04-27T07:22:13.129Z,617.00
2023-04-27T07:23:13.176Z,618.00
2023-04-27T07:24:13.245Z,620.00
2023-04-27T07:25:13.287Z,619.00
2023-04-27T07:26:13.327Z,619.00
2023-04-27T07:27:13.360Z,617.00
2023-04-27T07:28:13.424Z,614.00
2023-04-27T07:30:13.505Z,614.00
2023-04-27T07:31:13.522Z,608.00
2023-04-27T07:32:13.561Z,604.00
2023-04-27T07:33:13.490Z,610.00
2023-04-27T07:34:13.580Z,583.00
2023-04-27T07:35:13.506Z,556.00
2023-04-27T07:36:13.498Z,535.00
2023-04-27T07:37:13.530Z,531.00
2023-04-27T07:38:13.458Z,531.00
2023-04-27T07:39:13.681Z,527.00
2023-04-27T07:40:13.489Z,526.00
2023-04-27T07:41:13.483Z,527.00
2023-04-27T07:42:13.490Z,526.00
2023-04-27T07:43:13.503Z,516.00
2023-04-27T07:44:13.521Z,647.00
2023-04-27T07:45:13.520Z,647.00
2023-04-27T07:46:13.586Z,650.00
2023-04-27T07:47:13.542Z,656.00
2023-04-27T07:48:13.567Z,670.00
2023-04-27T07:49:13.963Z,693.00
2023-04-27T07:50:13.580Z,727.00
2023-04-27T07:51:13.573Z,736.00
2023-04-27T07:52:13.537Z,734.00
2023-04-27T07:53:13.574Z,727.00
2023-04-27T07:54:13.552Z,723.00
2023-04-27T07:55:13.545Z,698.00
2023-04-27T07:56:13.602Z,687.00
2023-04-27T07:57:13.536Z,666.00
2023-04-27T07:58:13.548Z,651.00
2023-04-27T07:59:13.714Z,643.00
2023-04-27T08:00:13.551Z,650.00
2023-04-27T08:01:13.559Z,644.00
2023-04-27T08:02:19.805Z,636.00
2023-04-27T08:03:14.695Z,615.00
2023-04-27T08:04:13.792Z,607.00
2023-04-27T08:05:14.000Z,613.00
2023-04-27T08:06:14.007Z,607.00
2023-04-27T08:07:14.169Z,597.00
2023-04-27T08:08:13.790Z,586.00
2023-04-27T08:09:13.876Z,587.00
2023-04-27T08:10:13.526Z,585.00
2023-04-27T08:11:13.561Z,580.00
2023-04-27T08:12:13.569Z,576.00
2023-04-27T08:13:13.686Z,569.00
2023-04-27T08:14:14.162Z,562.00
2023-04-27T08:15:13.703Z,563.00
2023-04-27T08:16:13.755Z,562.00
2023-04-27T08:17:13.778Z,562.00
2023-04-27T08:18:13.986Z,560.00
2023-04-27T08:19:14.061Z,557.00
2023-04-27T08:20:14.077Z,555.00
2023-04-27T08:21:14.000Z,556.00
2023-04-27T08:22:14.081Z,551.00
2023-04-27T08:23:14.177Z,546.00
2023-04-27T08:24:14.157Z,543.00
2023-04-27T08:25:14.198Z,545.00
2023-04-27T08:26:14.254Z,536.00
2023-04-27T08:27:14.334Z,512.00
2023-04-27T08:28:14.366Z,506.00
2023-04-27T08:29:26.317Z,495.00
2023-04-27T08:30:15.383Z,490.00
2023-04-27T08:31:14.462Z,512.00
2023-04-27T08:32:14.458Z,560.00
2023-04-27T08:33:14.464Z,581.00
2023-04-27T08:34:14.424Z,590.00
2023-04-27T08:35:14.460Z,639.00
2023-04-27T08:36:14.462Z,632.00
2023-04-27T08:37:14.435Z,695.00
2023-04-27T08:38:14.438Z,670.00
2023-04-27T08:39:14.780Z,634.00
2023-04-27T08:40:14.583Z,646.00
2023-04-27T08:41:20.656Z,651.00
2023-04-27T08:42:15.527Z,612.00
2023-04-27T08:43:14.490Z,592.00
2023-04-27T08:44:14.488Z,602.00
2023-04-27T08:45:14.527Z,591.00
2023-04-27T08:46:14.548Z,589.00
2023-04-27T08:47:14.543Z,590.00
2023-04-27T08:48:14.528Z,574.00
2023-04-27T08:49:16.783Z,559.00
2023-04-27T08:50:14.602Z,553.00
2023-04-27T08:51:14.519Z,547.00
2023-04-27T08:52:14.568Z,553.00
2023-04-27T08:53:14.531Z,590.00
2023-04-27T08:54:14.550Z,596.00
2023-04-27T08:55:16.649Z,622.00
2023-04-27T08:56:14.580Z,612.00
2023-04-27T08:57:14.578Z,607.00
2023-04-27T08:58:14.618Z,611.00
2023-04-27T08:59:15.179Z,608.00
2023-04-27T09:00:14.607Z,610.00
2023-04-27T09:01:14.626Z,610.00
2023-04-27T09:02:14.697Z,607.00
2023-04-27T09:03:14.764Z,603.00
2023-04-27T09:04:14.843Z,602.00
2023-04-27T09:05:14.834Z,609.00
2023-04-27T09:06:14.853Z,617.00
2023-04-27T09:07:14.788Z,620.00
2023-04-27T09:08:14.801Z,619.00
2023-04-27T09:09:15.076Z,613.00
2023-04-27T09:10:14.964Z,585.00
2023-04-27T09:11:14.918Z,578.00
2023-04-27T09:12:14.969Z,581.00
2023-04-27T09:13:14.971Z,585.00
2023-04-27T09:14:15.051Z,584.00
2023-04-27T09:15:15.026Z,587.00
2023-04-27T09:16:15.205Z,588.00
2023-04-27T09:17:15.620Z,589.00
2023-04-27T09:18:15.172Z,586.00
2023-04-27T09:19:15.281Z,576.00
2023-04-27T09:20:15.194Z,575.00
2023-04-27T09:21:15.226Z,577.00
2023-04-27T09:22:15.284Z,575.00
2023-04-27T09:23:15.327Z,576.00
2023-04-27T09:24:15.349Z,636.00
2023-04-27T09:25:15.440Z,606.00
2023-04-27T09:26:15.627Z,611.00
2023-04-27T09:27:15.437Z,628.00
2023-04-27T09:28:15.459Z,621.00
2023-04-27T09:29:15.696Z,612.00
2023-04-27T09:30:15.534Z,610.00
2023-04-27T09:31:15.637Z,627.00
2023-04-27T09:32:16.805Z,642.00
2023-04-27T09:33:15.760Z,670.00
2023-04-27T09:34:15.834Z,657.00
2023-04-27T09:35:15.869Z,641.00
2023-04-27T09:36:15.918Z,641.00
2023-04-27T09:37:15.977Z,643.00
2023-04-27T09:38:17.027Z,644.00
2023-04-27T09:39:16.043Z,643.00
2023-04-27T09:40:16.055Z,615.00
2023-04-27T09:41:16.124Z,622.00
2023-04-27T09:42:16.135Z,636.00
2023-04-27T09:43:16.223Z,634.00
2023-04-27T09:44:16.251Z,634.00
2023-04-27T09:45:16.354Z,653.00
2023-04-27T09:46:16.404Z,690.00
2023-04-27T09:47:16.398Z,717.00
2023-04-27T09:48:16.452Z,731.00
2023-04-27T09:49:16.492Z,737.00
2023-04-27T09:50:16.523Z,721.00
2023-04-27T09:51:16.671Z,664.00
2023-04-27T09:52:16.589Z,669.00
2023-04-27T09:53:16.631Z,668.00
2023-04-27T09:54:16.686Z,662.00
2023-04-27T09:55:16.733Z,663.00
2023-04-27T09:56:16.792Z,662.00
2023-04-27T09:57:16.820Z,661.00
2023-04-27T09:58:16.874Z,660.00
2023-04-27T09:59:16.915Z,652.00
2023-04-27T10:00:16.965Z,647.00
2023-04-27T10:01:17.058Z,641.00
2023-04-27T10:02:24.267Z,645.00
2023-04-27T10:03:18.146Z,647.00
2023-04-27T10:04:17.271Z,642.00
2023-04-27T10:05:17.106Z,647.00
2023-04-27T10:06:17.112Z,652.00
2023-04-27T10:07:17.093Z,647.00
2023-04-27T10:08:17.117Z,637.00
2023-04-27T10:09:17.107Z,633.00
2023-04-27T10:10:17.123Z,636.00
2023-04-27T10:11:17.114Z,640.00
2023-04-27T10:12:17.090Z,641.00
2023-04-27T10:13:17.126Z,642.00
2023-04-27T10:14:17.190Z,642.00
2023-04-27T10:15:17.274Z,643.00
2023-04-27T10:16:17.340Z,641.00
2023-04-27T10:17:17.415Z,640.00
2023-04-27T10:18:17.520Z,643.00
2023-04-27T10:19:17.517Z,642.00
2023-04-27T10:20:17.734Z,644.00
2023-04-27T10:21:17.714Z,644.00
2023-04-27T10:22:17.601Z,644.00
2023-04-27T10:23:17.697Z,645.00
2023-04-27T10:24:17.713Z,647.00
2023-04-27T10:25:17.770Z,649.00
2023-04-27T10:26:18.130Z,654.00
2023-04-27T10:27:17.800Z,724.00
2023-04-27T10:28:17.858Z,713.00
2023-04-27T10:29:18.029Z,723.00
2023-04-27T10:30:18.031Z,723.00
2023-04-27T10:31:18.198Z,728.00
2023-04-27T10:32:18.071Z,807.00
2023-04-27T10:33:18.130Z,777.00
2023-04-27T10:34:19.873Z,662.00
2023-04-27T10:35:18.178Z,595.00
2023-04-27T10:36:18.650Z,608.00
2023-04-27T10:37:18.145Z,606.00
2023-04-27T10:38:18.171Z,603.00
2023-04-27T10:39:18.180Z,609.00
2023-04-27T10:40:18.231Z,640.00
2023-04-27T10:41:18.174Z,613.00
2023-04-27T10:42:18.153Z,606.00
2023-04-27T10:43:18.086Z,607.00
2023-04-27T10:44:18.085Z,566.00
2023-04-27T10:45:18.096Z,548.00
2023-04-27T10:46:18.140Z,544.00
2023-04-27T10:47:18.098Z,541.00
2023-04-27T10:48:18.129Z,546.00
2023-04-27T10:49:18.092Z,531.00
2023-04-27T10:50:18.094Z,521.00
2023-04-27T10:51:18.202Z,538.00
2023-04-27T10:52:18.072Z,530.00
2023-04-27T10:53:18.118Z,532.00
2023-04-27T10:54:18.104Z,541.00
2023-04-27T10:55:18.111Z,543.00
2023-04-27T10:56:18.109Z,541.00
2023-04-27T10:57:18.131Z,538.00
2023-04-27T10:58:18.076Z,512.00
2023-04-27T10:59:18.105Z,506.00
2023-04-27T11:00:18.166Z,517.00
2023-04-27T11:01:18.174Z,516.00
2023-04-27T11:02:18.211Z,507.00
2023-04-27T11:03:18.284Z,509.00
2023-04-27T11:04:18.112Z,514.00
2023-04-27T11:05:18.118Z,503.00
2023-04-27T11:06:18.100Z,506.00
2023-04-27T11:07:18.114Z,513.00
2023-04-27T11:08:18.151Z,517.00
2023-04-27T11:09:18.083Z,516.00
2023-04-27T11:10:18.095Z,520.00
2023-04-27T11:11:18.114Z,533.00
2023-04-27T11:12:18.068Z,529.00
2023-04-27T11:13:18.109Z,522.00
2023-04-27T11:14:18.122Z,524.00
2023-04-27T11:15:18.124Z,529.00
2023-04-27T11:16:18.328Z,534.00
2023-04-27T11:17:18.087Z,536.00
2023-04-27T11:18:18.095Z,526.00
2023-04-27T11:19:18.113Z,523.00
2023-04-27T11:20:18.101Z,521.00
2023-04-27T11:21:18.227Z,521.00
2023-04-27T11:22:18.096Z,528.00
2023-04-27T11:23:18.089Z,556.00
2023-04-27T11:24:18.103Z,568.00
2023-04-27T11:25:18.109Z,573.00
2023-04-27T11:26:18.095Z,575.00
2023-04-27T11:27:18.157Z,572.00
2023-04-27T11:28:18.121Z,571.00
2023-04-27T11:29:18.167Z,569.00
2023-04-27T11:30:18.120Z,568.00
2023-04-27T11:31:18.152Z,570.00
2023-04-27T11:32:18.178Z,571.00
2023-04-27T11:33:18.145Z,576.00
2023-04-27T11:34:19.400Z,577.00
2023-04-27T11:35:18.140Z,578.00
2023-04-27T11:36:18.107Z,575.00
2023-04-27T11:37:18.826Z,573.00
2023-04-27T11:38:18.107Z,569.00
2023-04-27T11:39:18.194Z,564.00
2023-04-27T11:40:18.140Z,560.00
2023-04-27T11:41:18.170Z,554.00
2023-04-27T11:42:18.257Z,550.00
2023-04-27T11:43:18.154Z,551.00
2023-04-27T11:44:18.101Z,552.00
2023-04-27T11:45:18.124Z,552.00
2023-04-27T11:46:18.308Z,553.00
2023-04-27T11:47:19.000Z,554.00
2023-04-27T11:48:18.364Z,552.00
2023-04-27T11:49:18.337Z,548.00
2023-04-27T11:50:18.459Z,543.00
2023-04-27T11:51:18.510Z,542.00
2023-04-27T11:52:18.731Z,543.00
2023-04-27T11:53:19.088Z,540.00
2023-04-27T11:54:18.602Z,536.00
2023-04-27T11:55:18.661Z,532.00
2023-04-27T11:56:18.726Z,532.00
2023-04-27T11:57:18.784Z,531.00
2023-04-27T11:58:18.830Z,531.00
2023-04-27T11:59:18.825Z,530.00
2023-04-27T12:00:18.940Z,529.00
2023-04-27T12:01:27.680Z,529.00
2023-04-27T12:02:20.057Z,520.00
2023-04-27T12:03:19.138Z,519.00
2023-04-27T12:05:19.146Z,526.00
2023-04-27T12:06:32.314Z,527.00
2023-04-27T12:07:19.920Z,525.00
2023-04-27T12:08:18.907Z,520.00
2023-04-27T12:09:18.893Z,516.00
2023-04-27T12:10:18.895Z,516.00
2023-04-27T12:11:18.892Z,513.00
2023-04-27T12:12:18.899Z,513.00
2023-04-27T12:13:18.910Z,513.00
2023-04-27T12:14:18.936Z,513.00
2023-04-27T12:15:18.894Z,512.00
2023-04-27T12:16:18.924Z,509.00
2023-04-27T12:17:18.954Z,506.00
2023-04-27T12:18:18.965Z,505.00
2023-04-27T12:19:19.015Z,508.00
2023-04-27T12:20:19.077Z,508.00
2023-04-27T12:21:19.168Z,506.00
2023-04-27T12:22:19.244Z,505.00
2023-04-27T12:23:19.266Z,504.00
2023-04-27T12:24:19.331Z,502.00
2023-04-27T12:25:19.392Z,499.00
2023-04-27T12:26:19.431Z,499.00
2023-04-27T12:27:19.481Z,496.00
2023-04-27T12:28:19.525Z,493.00
2023-04-27T12:29:19.597Z,497.00
2023-04-27T12:30:19.643Z,499.00